aviador You're here:

KINF Decoded Metar

in
Report Time2017-10-20 15:55:00
UTC Time2017-10-20 16:07:25
Flight Rules vfr VFR
Wind080° at 06 Gusting to 16 kt
W.Decomp.*RWY 01: 2.1 kt HW 5.6 kt RCW
W.Rank080° ranks 16
Current wind is above 080° avg. (5.1)
Visibility9999 m
Phenomena:N/A
Clouds:Scattered 036 Hf
Expected CloudBase > 3,200 ft AGL from Temp-Dew spread
CeilingNone
Temp28°C
Dew Point20°C (62% RH)
Heat Index29.7°C
QNH1021 hPa
Raw Report
KINF 201555Z AUTO 08006G16KT 10SM SCT036 28/20 A3016 RMK AO2=

Extra information for KINF:More info

Social comments